Time;durP1;ratioP1;P1;durP2;ratioP2;P2;SDS_P1;SDS_P2;PMS_P1;PMS_P2;Temp;Humidity;BMP_temperature;BMP_pressure;BME280_temperature;BME280_humidity;BME280_pressure;Samples;Min_cycle;Max_cycle;Signal;HPM_P1;HPM_P2
2022/08/01 00:00:30;;;;;;;0.10;0.10;;;;;;;22.58;54.46;101243.25;5110772;28;20088;-37
2022/08/01 00:02:56;;;;;;;0.10;0.10;;;;;;;22.59;54.49;101253.25;5109362;28;20047;-37
2022/08/01 00:05:21;;;;;;;0.10;0.10;;;;;;;22.57;54.22;101244.38;5106542;28;20437;-37
2022/08/01 00:07:47;;;;;;;0.10;0.10;;;;;;;22.57;54.47;101238.84;5111924;28;20039;-39
2022/08/01 00:10:14;;;;;;;0.10;0.10;;;;;;;22.58;54.43;101240.47;5111994;28;20047;-36
2022/08/01 00:12:40;;;;;;;0.10;0.10;;;;;;;22.57;54.48;101245.22;5110353;28;20040;-38
2022/08/01 00:15:08;;;;;;;0.10;0.10;;;;;;;22.58;54.39;101246.03;5089430;28;20130;-37
2022/08/01 00:17:34;;;;;;;0.10;0.10;;;;;;;22.57;54.41;101234.09;5109094;28;20079;-38
2022/08/01 00:20:01;;;;;;;0.10;0.10;;;;;;;22.57;54.51;101245.22;5108908;28;20078;-37
2022/08/01 00:22:26;;;;;;;0.10;0.10;;;;;;;22.57;54.41;101245.22;5110226;28;20136;-37
2022/08/01 00:24:52;;;;;;;0.10;0.10;;;;;;;22.57;54.55;101245.22;5112706;28;20494;-37
2022/08/01 00:27:17;;;;;;;0.10;0.10;;;;;;;22.57;54.35;101241.59;5110747;28;20048;-37
2022/08/01 00:29:43;;;;;;;0.10;0.10;;;;;;;22.57;54.46;101247.97;5108915;28;20046;-38
2022/08/01 00:32:31;;;;;;;0.10;0.10;;;;;;;22.57;54.51;101255.50;5093426;28;20054;-37
2022/08/01 00:34:56;;;;;;;0.10;0.10;;;;;;;22.57;54.55;101253.53;5088206;28;20479;-39
2022/08/01 00:37:22;;;;;;;0.10;0.10;;;;;;;22.57;54.48;101253.53;5116232;28;20050;-39
2022/08/01 00:39:48;;;;;;;0.10;0.10;;;;;;;22.57;54.39;101250.75;5107035;28;20040;-36
2022/08/01 00:42:13;;;;;;;0.10;0.10;;;;;;;22.56;54.34;101249.13;5112742;28;20044;-40
2022/08/01 00:44:39;;;;;;;0.10;0.10;;;;;;;22.57;54.45;101247.16;5117063;28;20059;-37
2022/08/01 00:47:05;;;;;;;0.10;0.10;;;;;;;22.57;54.50;101247.97;5112779;28;20410;-38
2022/08/01 00:49:31;;;;;;;0.10;0.10;;;;;;;22.58;54.44;101246.03;5112844;28;20055;-36
2022/08/01 00:51:58;;;;;;;0.10;0.10;;;;;;;22.58;54.42;101251.59;5114505;28;20486;-39
2022/08/01 00:54:26;;;;;;;0.10;0.10;;;;;;;22.58;54.63;101240.47;5119624;28;20482;-39
2022/08/01 00:56:52;;;;;;;0.10;0.10;;;;;;;22.57;54.38;101244.38;5084380;28;20142;-37
2022/08/01 00:59:18;;;;;;;0.10;0.10;;;;;;;22.57;54.48;101242.44;5112660;28;20472;-39
2022/08/01 01:01:46;;;;;;;0.10;0.10;;;;;;;22.57;54.45;101242.44;5110618;28;20077;-37
2022/08/01 01:04:12;;;;;;;0.10;0.10;;;;;;;22.57;54.47;101239.66;5114769;28;20051;-39
2022/08/01 01:07:07;;;;;;;0.10;0.10;;;;;;;22.56;54.51;101238.00;5095704;28;20165;-37
2022/08/01 01:09:45;;;;;;;0.10;0.10;;;;;;;22.57;54.41;101228.56;5085752;28;20498;-38
2022/08/01 01:15:07;;;;;;;0.10;0.10;;;;;;;22.57;54.38;101236.06;5174582;27;20197;-38
2022/08/01 01:17:39;;;;;;;0.10;0.10;;;;;;;22.57;54.47;101236.88;5115706;27;20070;-37
2022/08/01 01:20:17;;;;;;;0.10;0.10;;;;;;;22.57;54.52;101236.06;5157784;27;20046;-39
2022/08/01 01:22:53;;;;;;;0.10;0.10;;;;;;;22.57;54.42;101231.31;5153690;27;20126;-38
2022/08/01 01:25:41;;;;;;;0.10;0.10;;;;;;;22.58;54.38;101229.38;5127499;27;20042;-39
2022/08/01 01:28:10;;;;;;;;;;;;;;;22.57;54.41;101231.31;5126150;27;20079;-39
2022/08/01 01:30:37;;;;;;;0.10;0.10;;;;;;;22.57;54.47;101245.22;5136512;27;19985;-39
2022/08/01 01:33:06;;;;;;;0.10;0.10;;;;;;;22.57;54.23;101244.38;5152645;27;21102;-38
2022/08/01 01:35:34;;;;;;;0.10;0.10;;;;;;;22.57;54.43;101245.22;5132293;27;20303;-37
2022/08/01 01:38:01;;;;;;;;;;;;;;;22.57;54.47;101241.59;5151484;27;20113;-39
2022/08/01 01:40:28;;;;;;;0.10;0.10;;;;;;;22.56;54.39;101251.88;5150181;27;19966;-37
2022/08/01 01:42:55;;;;;;;0.10;0.10;;;;;;;22.55;54.32;101239.13;5146775;27;20709;-37
2022/08/01 01:45:23;;;;;;;0.10;0.10;;;;;;;22.57;54.52;101249.94;5133093;27;20492;-37
2022/08/01 01:47:49;;;;;;;0.10;0.10;;;;;;;22.57;54.56;101241.59;5107620;27;20318;-38
2022/08/01 01:50:14;;;;;;;0.10;0.10;;;;;;;22.57;54.52;101247.16;5135879;27;20040;-37
2022/08/01 01:52:42;;;;;;;0.10;0.10;;;;;;;22.57;54.59;101244.38;5139278;27;20366;-38
2022/08/01 01:55:08;;;;;;;0.10;0.10;;;;;;;22.57;54.38;101247.16;5114959;27;20504;-37
2022/08/01 01:57:39;;;;;;;0.10;0.10;;;;;;;22.56;54.38;101251.88;5114590;27;20078;-37
2022/08/01 02:00:07;;;;;;;0.10;0.10;;;;;;;22.56;54.40;101251.06;5118462;27;20074;-39
2022/08/01 02:02:33;;;;;;;0.10;0.10;;;;;;;22.57;54.42;101255.50;5132337;27;20066;-37
2022/08/01 02:05:00;;;;;;;0.10;0.10;;;;;;;22.57;54.44;101249.94;5135985;27;20457;-37
2022/08/01 02:07:27;;;;;;;0.10;0.10;;;;;;;22.57;54.48;101241.59;5136157;27;20075;-39
2022/08/01 02:09:54;;;;;;;0.10;0.10;;;;;;;22.56;54.36;101240.78;5137436;27;20074;-36
2022/08/01 02:12:21;;;;;;;0.10;0.10;;;;;;;22.58;54.30;101246.03;5133367;27;20126;-37
2022/08/01 02:14:48;;;;;;;0.10;0.10;;;;;;;22.57;54.36;101247.97;5133378;27;20083;-37
2022/08/01 02:17:16;;;;;;;0.10;0.10;;;;;;;22.56;54.36;101248.28;5113249;27;20766;-38
2022/08/01 02:19:42;;;;;;;;;;;;;;;22.57;54.47;101245.22;5098817;27;20173;-39
2022/08/01 02:22:10;;;;;;;0.10;0.10;;;;;;;22.56;54.43;101234.41;5134723;27;19927;-37
2022/08/01 02:24:41;;;;;;;0.10;0.10;;;;;;;22.56;54.31;101238.00;5116199;28;20087;-38
2022/08/01 02:27:09;;;;;;;0.10;0.10;;;;;;;22.57;54.30;101244.38;5102442;28;20184;-37
2022/08/01 02:29:37;;;;;;;;;;;;;;;22.56;54.52;101229.69;5122577;28;20148;-37
2022/08/01 02:32:04;;;;;;;0.10;0.10;;;;;;;22.56;54.56;101226.09;5117975;28;19927;-37
2022/08/01 02:34:32;;;;;;;0.10;0.10;;;;;;;22.57;54.47;101230.50;5119612;28;20048;-39
2022/08/01 02:36:58;;;;;;;0.10;0.10;;;;;;;22.56;54.47;101220.53;5116080;28;20124;-38
2022/08/01 02:39:26;;;;;;;0.10;0.10;;;;;;;22.56;54.47;101229.69;5101163;28;20082;-39
2022/08/01 02:41:57;;;;;;;0.13;0.13;;;;;;;22.56;54.38;101224.13;5118183;28;20093;-38
2022/08/01 02:44:25;;;;;;;0.10;0.10;;;;;;;22.57;54.53;101230.50;5125274;28;20238;-38
2022/08/01 02:46:56;;;;;;;0.10;0.10;;;;;;;22.58;54.47;101229.38;5098669;28;20478;-36
2022/08/01 02:49:22;;;;;;;0.10;0.10;;;;;;;22.57;54.45;101230.50;5116824;28;20363;-37
2022/08/01 02:51:48;;;;;;;0.10;0.10;;;;;;;22.55;54.33;101230.81;5104511;28;20130;-37
2022/08/01 02:54:17;;;;;;;0.10;0.10;;;;;;;22.56;54.54;101229.69;5088963;28;20086;-39
2022/08/01 02:56:43;;;;;;;0.10;0.10;;;;;;;22.57;54.62;101230.50;5103759;28;20078;-39
2022/08/01 02:59:14;;;;;;;0.10;0.10;;;;;;;22.57;54.40;101233.28;5127599;27;20195;-39
2022/08/01 03:01:40;;;;;;;0.10;0.10;;;;;;;22.57;54.44;101230.50;5104282;28;20039;-39
2022/08/01 03:04:07;;;;;;;0.10;0.10;;;;;;;22.57;54.32;101233.28;5119410;28;20055;-39
2022/08/01 03:06:33;;;;;;;0.10;0.10;;;;;;;22.56;54.48;101226.91;5125179;28;20078;-39
2022/08/01 03:09:01;;;;;;;0.10;0.10;;;;;;;22.57;54.47;101230.50;5119236;28;20047;-37
2022/08/01 03:11:28;;;;;;;0.10;0.10;;;;;;;22.57;54.48;101227.72;5119127;28;20177;-37
2022/08/01 03:13:55;;;;;;;0.10;0.10;;;;;;;22.56;54.51;101232.47;5117155;28;20142;-37
2022/08/01 03:16:22;;;;;;;0.10;0.10;;;;;;;22.57;54.50;101238.84;5099278;28;20078;-37
2022/08/01 03:18:49;;;;;;;0.10;0.10;;;;;;;22.57;54.36;101236.88;5098721;28;20066;-37
2022/08/01 03:21:15;;;;;;;0.10;0.10;;;;;;;22.56;54.38;101229.69;5118917;28;20173;-37
2022/08/01 03:23:41;;;;;;;0.10;0.10;;;;;;;22.57;54.43;101236.88;5120915;28;20051;-37
2022/08/01 03:26:07;;;;;;;0.10;0.10;;;;;;;22.57;54.42;101244.38;5123262;28;20484;-37
2022/08/01 03:28:33;;;;;;;0.10;0.10;;;;;;;22.57;54.35;101247.16;5124675;28;20073;-36
2022/08/01 03:31:00;;;;;;;0.10;0.10;;;;;;;22.56;54.60;101243.56;5123333;28;20036;-37
2022/08/01 03:33:26;;;;;;;0.10;0.10;;;;;;;22.57;54.59;101252.72;5100880;28;20128;-39
2022/08/01 03:35:53;;;;;;;0.10;0.10;;;;;;;22.56;54.38;101243.56;5118298;28;20067;-37
2022/08/01 03:38:23;;;;;;;0.10;0.10;;;;;;;22.56;54.38;101249.13;5119653;28;20143;-39
2022/08/01 03:40:53;;;;;;;0.17;0.17;;;;;;;22.56;54.50;101245.50;5115900;28;20043;-39
2022/08/01 03:43:23;;;;;;;0.10;0.10;;;;;;;22.56;54.32;101246.34;5104730;28;20130;-37
2022/08/01 03:45:51;;;;;;;0.10;0.10;;;;;;;22.57;54.42;101247.16;5119939;28;20119;-37
2022/08/01 03:48:18;;;;;;;;;;;;;;;22.57;54.48;101247.97;5123177;28;20481;-37
2022/08/01 03:50:46;;;;;;;0.10;0.10;;;;;;;22.57;54.51;101244.38;5119878;28;20362;-36
2022/08/01 03:53:13;;;;;;;0.10;0.10;;;;;;;22.56;54.38;101243.56;5119309;28;20610;-37
2022/08/01 03:55:39;;;;;;;0.10;0.10;;;;;;;22.57;54.59;101247.16;5116010;28;20075;-37
2022/08/01 03:58:05;;;;;;;0.10;0.10;;;;;;;22.57;54.40;101247.16;5100729;28;20090;-37
2022/08/01 04:00:38;;;;;;;0.10;0.10;;;;;;;22.56;54.45;101249.13;5120913;28;20450;-37
2022/08/01 04:03:04;;;;;;;0.10;0.10;;;;;;;22.56;54.57;101251.88;5094905;28;20067;-39
2022/08/01 04:05:31;;;;;;;0.10;0.10;;;;;;;22.56;54.36;101251.88;5119965;28;20502;-38
2022/08/01 04:07:57;;;;;;;0.10;0.10;;;;;;;22.55;54.63;101253.03;5117353;28;20078;-37
2022/08/01 04:10:23;;;;;;;0.10;0.10;;;;;;;22.57;54.36;101252.72;5124937;28;20138;-37
2022/08/01 04:12:49;;;;;;;0.10;0.10;;;;;;;22.57;54.53;101247.97;5086571;28;20082;-38
2022/08/01 04:15:15;;;;;;;0.10;0.10;;;;;;;22.56;54.38;101253.84;5117190;28;20136;-39
2022/08/01 04:17:41;;;;;;;0.10;0.10;;;;;;;22.56;54.50;101251.88;5120526;28;20035;-35
2022/08/01 04:20:07;;;;;;;0.10;0.10;;;;;;;22.56;54.41;101248.28;5102462;28;20043;-38
2022/08/01 04:22:33;;;;;;;0.10;0.10;;;;;;;22.56;54.50;101245.50;5122792;28;20130;-37
2022/08/01 04:25:08;;;;;;;0.13;0.13;;;;;;;22.56;54.53;101249.13;5119127;28;20086;-39
2022/08/01 04:27:36;;;;;;;0.10;0.10;;;;;;;22.56;54.38;101257.44;5093504;28;20131;-37
2022/08/01 04:30:18;;;;;;;0.10;0.10;;;;;;;22.56;54.55;101257.44;5103035;28;20482;-39
2022/08/01 04:32:46;;;;;;;0.10;0.10;;;;;;;22.57;54.51;101263.81;5101514;28;20052;-39
2022/08/01 04:35:16;;;;;;;0.10;0.10;;;;;;;22.56;54.43;101262.16;5099482;28;20125;-37
2022/08/01 04:38:02;;;;;;;0.10;0.10;;;;;;;22.56;54.48;101263.00;5108320;28;20043;-37
2022/08/01 04:40:28;;;;;;;0.10;0.10;;;;;;;22.56;54.40;101264.94;5119095;28;20079;-37
2022/08/01 04:42:54;;;;;;;0.10;0.10;;;;;;;22.56;54.39;101259.41;5119153;28;20063;-38
2022/08/01 04:45:21;;;;;;;0.10;0.10;;;;;;;22.57;54.53;101266.59;5116080;28;20047;-39
2022/08/01 04:47:47;;;;;;;0.10;0.10;;;;;;;22.56;54.41;101270.50;5115476;28;20093;-38
2022/08/01 04:50:13;;;;;;;0.10;0.10;;;;;;;22.56;54.48;101279.66;5121581;28;20485;-37
2022/08/01 04:52:41;;;;;;;0.10;0.10;;;;;;;22.56;54.52;101278.81;5117392;28;20091;-37
2022/08/01 04:55:08;;;;;;;0.20;0.20;;;;;;;22.55;54.44;101283.56;5123283;28;20132;-38
2022/08/01 04:57:36;;;;;;;0.10;0.10;;;;;;;22.55;54.33;101283.56;5104684;27;20130;-37
2022/08/01 05:00:03;;;;;;;0.10;0.10;;;;;;;22.56;54.41;101287.16;5103977;28;20067;-38
2022/08/01 05:02:29;;;;;;;0.10;0.10;;;;;;;22.56;54.54;101290.75;5100658;28;20066;-37
2022/08/01 05:04:56;;;;;;;0.10;0.10;;;;;;;22.57;54.50;101291.56;5122501;28;20050;-36
2022/08/01 05:07:21;;;;;;;0.10;0.10;;;;;;;22.56;54.39;101287.97;5087389;28;20078;-36
2022/08/01 05:09:47;;;;;;;0.10;0.10;;;;;;;22.56;54.49;101287.16;5120234;28;20076;-38
2022/08/01 05:12:13;;;;;;;0.10;0.10;;;;;;;22.56;54.37;101282.41;5119439;28;20065;-37
2022/08/01 05:14:38;;;;;;;0.10;0.10;;;;;;;22.56;54.56;101287.97;5086626;28;20112;-37
2022/08/01 05:17:06;;;;;;;0.10;0.10;;;;;;;22.56;54.40;101287.16;5100895;28;20050;-39
2022/08/01 05:19:34;;;;;;;0.10;0.10;;;;;;;22.55;54.50;101289.09;5120822;28;20063;-39
2022/08/01 05:22:01;;;;;;;0.10;0.10;;;;;;;22.56;54.39;101299.06;5120598;28;20070;-39
2022/08/01 05:24:28;;;;;;;0.10;0.10;;;;;;;22.55;54.45;101294.66;5117509;28;20142;-37
2022/08/01 05:26:55;;;;;;;0.10;0.10;;;;;;;22.56;54.48;101296.28;5120581;28;20504;-38
2022/08/01 05:29:20;;;;;;;0.10;0.10;;;;;;;22.54;54.61;101291.06;5120881;28;20062;-39
2022/08/01 05:31:46;;;;;;;0.10;0.10;;;;;;;22.55;54.55;101297.44;5114839;28;20066;-39
2022/08/01 05:34:11;;;;;;;0.10;0.10;;;;;;;22.55;54.38;101300.19;5118610;28;20058;-38
2022/08/01 05:36:40;;;;;;;0.10;0.10;;;;;;;22.56;54.55;101301.03;5123774;28;20065;-35
2022/08/01 05:39:06;;;;;;;0.10;0.10;;;;;;;22.57;54.71;101306.28;5117356;28;20044;-37
2022/08/01 05:41:32;;;;;;;0.10;0.10;;;;;;;22.54;54.54;101302.16;5119526;28;20135;-37
2022/08/01 05:43:57;;;;;;;0.10;0.10;;;;;;;22.57;54.59;101305.44;5117490;28;20044;-37
2022/08/01 05:46:23;;;;;;;0.10;0.10;;;;;;;22.56;54.60;101309.34;5116533;28;20149;-37
2022/08/01 05:48:52;;;;;;;0.10;0.10;;;;;;;22.56;54.50;101312.13;5115798;28;20398;-41
2022/08/01 05:51:18;;;;;;;0.10;0.10;;;;;;;22.56;54.52;101320.47;5117953;28;20451;-39
2022/08/01 05:53:44;;;;;;;0.10;0.10;;;;;;;22.56;54.80;101317.69;5101716;28;20036;-37
2022/08/01 05:56:10;;;;;;;0.10;0.10;;;;;;;22.56;54.69;101321.28;5121426;28;20481;-37
2022/08/01 05:58:35;;;;;;;0.10;0.10;;;;;;;22.55;54.72;101316.84;5123272;27;20065;-37
2022/08/01 06:01:01;;;;;;;0.10;0.10;;;;;;;22.56;54.54;101315.72;5117806;27;20045;-37
2022/08/01 06:03:30;;;;;;;0.10;0.10;;;;;;;22.56;54.64;101317.69;5124454;28;20051;-37
2022/08/01 06:05:57;;;;;;;0.10;0.10;;;;;;;22.56;54.54;101312.13;5117993;28;20079;-37
2022/08/01 06:08:22;;;;;;;0.10;0.10;;;;;;;22.56;54.62;101320.47;5105563;28;20504;-39
2022/08/01 06:10:48;;;;;;;0.10;0.10;;;;;;;22.56;54.55;101318.50;5127060;28;20035;-37
2022/08/01 06:13:14;;;;;;;0.10;0.10;;;;;;;22.56;54.73;101321.28;5107793;28;20047;-37
2022/08/01 06:15:40;;;;;;;0.10;0.10;;;;;;;22.55;54.54;101314.09;5121417;27;20051;-37
2022/08/01 06:18:05;;;;;;;0.10;0.10;;;;;;;22.57;54.67;101316.56;5123576;28;20043;-39
2022/08/01 06:20:31;;;;;;;0.10;0.10;;;;;;;22.56;54.45;101312.13;5104847;28;20220;-37
2022/08/01 06:22:57;;;;;;;0.10;0.10;;;;;;;22.54;54.40;101304.09;5122986;28;20043;-39
2022/08/01 06:25:25;;;;;;;;;;;;;;;22.55;54.64;101308.53;5125606;28;20087;-37
2022/08/01 06:27:50;;;;;;;0.10;0.10;;;;;;;22.53;54.43;101308.81;5106703;28;20017;-37
2022/08/01 06:30:16;;;;;;;0.10;0.10;;;;;;;22.56;54.41;101312.13;5122109;28;20669;-36
2022/08/01 06:32:42;;;;;;;0.10;0.10;;;;;;;22.54;54.72;101307.72;5118500;28;20047;-39
2022/08/01 06:35:08;;;;;;;0.10;0.10;;;;;;;22.55;54.45;101314.09;5120025;28;20052;-37
2022/08/01 06:37:33;;;;;;;0.10;0.10;;;;;;;22.56;54.49;101306.56;5100954;28;20130;-38
2022/08/01 06:40:04;;;;;;;0.15;0.15;;;;;;;22.55;54.47;101308.53;5119617;28;20046;-39
2022/08/01 06:42:34;;;;;;;0.10;0.10;;;;;;;22.55;54.56;101314.09;5103235;28;20079;-39
2022/08/01 06:45:03;;;;;;;0.10;0.10;;;;;;;22.56;54.53;101309.34;5100194;28;20082;-40
2022/08/01 06:47:29;;;;;;;0.10;0.10;;;;;;;22.55;54.31;101308.53;5120837;28;20455;-38
2022/08/01 06:49:54;;;;;;;0.10;0.10;;;;;;;22.55;54.56;101316.84;5121869;28;20504;-40
2022/08/01 06:52:20;;;;;;;0.10;0.10;;;;;;;22.56;54.71;101315.72;5118632;28;20385;-40
2022/08/01 06:54:46;;;;;;;0.10;0.10;;;;;;;22.55;54.42;101308.53;5123920;28;20043;-40
2022/08/01 06:57:12;;;;;;;0.10;0.10;;;;;;;22.55;54.49;101314.09;5128326;27;20047;-39
2022/08/01 06:59:37;;;;;;;0.10;0.10;;;;;;;22.56;54.75;101312.94;5107450;28;20398;-41
2022/08/01 07:02:03;;;;;;;0.10;0.10;;;;;;;22.55;54.72;101319.63;5106760;28;20050;-38
2022/08/01 07:04:29;;;;;;;0.10;0.10;;;;;;;22.56;54.56;101312.13;5117714;28;20075;-40
2022/08/01 07:06:56;;;;;;;0.10;0.10;;;;;;;22.56;54.56;101315.72;5121487;28;20050;-39
2022/08/01 07:09:21;;;;;;;0.10;0.10;;;;;;;22.55;54.57;101314.09;5101133;28;20078;-42
2022/08/01 07:11:47;;;;;;;0.10;0.10;;;;;;;22.55;54.29;101311.31;5123918;27;20066;-40
2022/08/01 07:14:13;;;;;;;0.10;0.10;;;;;;;22.56;54.95;101314.91;5123827;28;20333;-43
2022/08/01 07:16:38;;;;;;;0.10;0.10;;;;;;;22.55;54.49;101316.84;5121783;28;20087;-41
2022/08/01 07:19:04;;;;;;;0.10;0.10;;;;;;;22.56;54.71;101314.91;5120617;28;20054;-42
2022/08/01 07:21:30;;;;;;;0.10;0.10;;;;;;;22.57;54.45;101313.78;5120380;28;20039;-41
2022/08/01 07:24:08;;;;;;;0.10;0.10;;;;;;;22.57;55.13;101311.00;5106810;28;20043;-42
2022/08/01 07:26:41;;;;;;;0.10;0.10;;;;;;;22.57;54.80;101311.81;5088755;28;20447;-40
2022/08/01 07:29:19;;;;;;;0.10;0.10;;;;;;;22.56;54.62;101312.94;5119658;28;20058;-40
2022/08/01 07:31:48;;;;;;;0.20;0.20;;;;;;;22.57;54.53;101308.22;5114621;28;20044;-40
2022/08/01 07:34:14;;;;;;;0.10;0.10;;;;;;;22.57;54.96;101311.00;5117914;28;20380;-41
2022/08/01 07:36:39;;;;;;;0.10;0.10;;;;;;;22.57;54.56;101317.38;5119769;28;20069;-40
2022/08/01 07:39:05;;;;;;;0.10;0.10;;;;;;;22.57;54.43;101322.94;5122445;28;20109;-39
2022/08/01 07:41:30;;;;;;;0.10;0.10;;;;;;;22.59;54.67;101325.44;5120747;28;20046;-42
2022/08/01 07:44:16;;;;;;;0.10;0.10;;;;;;;22.58;56.18;101329.31;5106530;28;20501;-40
2022/08/01 07:46:42;;;;;;;0.10;0.10;;;;;;;22.59;55.04;101326.25;5123380;28;20035;-40
2022/08/01 07:49:07;;;;;;;0.10;0.10;;;;;;;22.58;54.62;101332.06;5120045;28;20470;-40
2022/08/01 07:51:33;;;;;;;0.10;0.10;;;;;;;22.57;54.47;101330.44;5120386;28;20381;-41
2022/08/01 07:53:59;;;;;;;0.10;0.10;;;;;;;22.57;54.46;101336.81;5116349;28;20442;-42
2022/08/01 07:56:26;;;;;;;0.10;0.10;;;;;;;22.58;55.18;101337.63;5119138;27;20405;-38
2022/08/01 07:58:51;;;;;;;0.10;0.10;;;;;;;22.57;54.67;101336.81;5122773;28;20134;-42
2022/08/01 08:01:17;;;;;;;0.10;0.10;;;;;;;22.58;55.53;101332.91;5122641;28;20412;-40
2022/08/01 08:03:43;;;;;;;0.10;0.10;;;;;;;22.59;54.60;101337.34;5117831;28;20067;-41
2022/08/01 08:06:09;;;;;;;0.10;0.10;;;;;;;22.58;54.67;101335.69;5121730;28;20039;-42
2022/08/01 08:08:34;;;;;;;0.10;0.10;;;;;;;22.59;54.78;101334.59;5124456;28;20043;-43
2022/08/01 08:11:00;;;;;;;0.10;0.10;;;;;;;22.58;55.71;101326.53;5117581;28;20073;-41
2022/08/01 08:13:26;;;;;;;0.10;0.10;;;;;;;22.57;54.59;101341.53;5098084;28;20078;-40
2022/08/01 08:15:52;;;;;;;0.10;0.10;;;;;;;22.58;54.67;101329.31;5116154;28;20039;-41
2022/08/01 08:18:18;;;;;;;0.10;0.10;;;;;;;22.57;54.55;101336.81;5119565;28;20039;-40
2022/08/01 08:20:43;;;;;;;0.10;0.10;;;;;;;22.57;54.59;101339.59;5119134;28;20092;-41
2022/08/01 08:26:09;;;;;;;0.10;0.10;;;;;;;22.57;54.73;101341.53;5108914;28;20043;-41
2022/08/01 08:28:35;;;;;;;0.10;0.10;;;;;;;22.58;55.93;101352.34;5121707;28;20066;-40
2022/08/01 08:31:01;;;;;;;0.10;0.10;;;;;;;22.59;54.69;101342.09;5100283;28;20057;-41
2022/08/01 08:33:27;;;;;;;0.10;0.10;;;;;;;22.59;54.77;101348.47;5119061;28;20051;-41
2022/08/01 08:35:54;;;;;;;0.10;0.10;;;;;;;22.58;54.88;101352.34;5101585;28;20103;-39
2022/08/01 08:38:20;;;;;;;0.10;0.10;;;;;;;22.57;54.94;101345.13;5117748;28;20441;-42
2022/08/01 08:40:54;;;;;;;0.10;0.10;;;;;;;22.58;54.83;101357.88;5105558;28;20394;-38
2022/08/01 08:43:20;;;;;;;0.10;0.10;;;;;;;22.59;55.16;101350.41;5118898;28;20076;-38
2022/08/01 08:45:46;;;;;;;0.10;0.10;;;;;;;22.58;55.37;101345.97;5116073;28;20083;-39
2022/08/01 08:48:25;;;;;;;0.10;0.10;;;;;;;22.58;54.67;101351.50;5118172;28;20039;-39
2022/08/01 08:50:53;;;;;;;0.10;0.10;;;;;;;22.57;54.81;101353.47;5119842;28;20092;-41
2022/08/01 08:53:19;;;;;;;0.10;0.10;;;;;;;22.58;54.66;101354.28;5105669;28;20089;-42
2022/08/01 08:55:45;;;;;;;0.10;0.10;;;;;;;22.56;54.64;101360.13;5119872;27;20090;-41
2022/08/01 08:58:22;;;;;;;0.10;0.10;;;;;;;22.56;54.78;101359.31;5116031;28;20035;-41
2022/08/01 09:00:57;;;;;;;0.10;0.10;;;;;;;22.57;54.64;101366.50;5115096;28;20138;-38
2022/08/01 09:03:22;;;;;;;0.10;0.10;;;;;;;22.56;54.59;101360.13;5118975;28;20062;-42
2022/08/01 09:05:48;;;;;;;0.10;0.10;;;;;;;22.58;54.93;101368.16;5118909;28;20039;-41
2022/08/01 09:08:14;;;;;;;0.10;0.10;;;;;;;22.57;54.78;101355.41;5119891;28;20051;-42
2022/08/01 09:10:39;;;;;;;0.10;0.10;;;;;;;22.58;54.76;101360.66;5120017;28;20047;-39
2022/08/01 09:15:47;;;;;;;0.10;0.10;;;;;;;22.59;54.55;101355.97;5153748;27;20113;-41
2022/08/01 09:18:34;;;;;;;0.10;0.10;;;;;;;22.58;55.59;101360.66;5144012;27;20142;-40
2022/08/01 09:21:21;;;;;;;0.10;0.10;;;;;;;22.59;54.82;101358.75;5143152;27;20098;-41
2022/08/01 09:23:49;;;;;;;0.10;0.10;;;;;;;22.58;54.68;101355.09;5158275;27;20078;-39
2022/08/01 09:26:26;;;;;;;0.10;0.10;;;;;;;22.59;54.93;101367.06;5144589;27;20053;-39
2022/08/01 09:28:52;;;;;;;0.10;0.10;;;;;;;22.58;54.71;101374.53;5156062;27;20098;-39
2022/08/01 09:31:18;;;;;;;0.10;0.10;;;;;;;22.57;54.69;101364.56;5158636;27;20050;-39
2022/08/01 09:34:03;;;;;;;0.10;0.10;;;;;;;22.57;54.71;101369.28;5142286;27;20123;-39
2022/08/01 09:36:51;;;;;;;0.13;0.13;;;;;;;22.58;54.82;101369.00;5146792;27;20505;-39
2022/08/01 09:39:23;;;;;;;0.10;0.10;;;;;;;22.58;54.80;101365.38;5143141;27;20043;-39
2022/08/01 09:41:48;;;;;;;0.10;0.10;;;;;;;22.58;54.74;101366.22;5145365;27;20081;-39
2022/08/01 09:44:17;;;;;;;0.10;0.10;;;;;;;22.59;54.84;101370.66;5153676;27;20046;-39
2022/08/01 09:46:52;;;;;;;0.10;0.10;;;;;;;22.57;54.81;101367.34;5154350;27;20463;-41
2022/08/01 09:49:35;;;;;;;0.10;0.10;;;;;;;22.57;54.78;101372.91;5135731;27;20078;-39
2022/08/01 09:52:22;;;;;;;0.10;0.10;;;;;;;22.57;54.79;101372.91;5137073;27;20153;-39
2022/08/01 09:54:57;;;;;;;0.10;0.10;;;;;;;22.57;54.80;101370.13;5152309;27;20468;-37
2022/08/01 09:57:23;;;;;;;0.10;0.10;;;;;;;22.57;54.87;101372.91;5130839;27;20075;-37
2022/08/01 09:59:50;;;;;;;0.10;0.10;;;;;;;22.58;54.87;101366.22;5134921;27;20134;-37
2022/08/01 10:05:06;;;;;;;0.10;0.10;;;;;;;22.57;54.72;101375.66;5167215;27;20198;-40
2022/08/01 10:07:35;;;;;;;0.10;0.10;;;;;;;22.58;55.02;101373.72;5146160;27;20319;-36
2022/08/01 10:10:13;;;;;;;0.10;0.10;;;;;;;22.57;54.85;101366.50;5144105;27;20101;-40
2022/08/01 10:12:41;;;;;;;0.10;0.10;;;;;;;22.57;54.78;101364.56;5163134;27;20460;-39
2022/08/01 10:15:11;;;;;;;0.10;0.10;;;;;;;22.58;54.79;101365.38;5144710;27;20054;-39
2022/08/01 10:17:41;;;;;;;0.10;0.10;;;;;;;22.57;54.84;101356.25;5146288;27;20465;-36
2022/08/01 10:20:19;;;;;;;0.10;0.10;;;;;;;22.57;54.81;101358.19;5160926;27;20081;-41
2022/08/01 10:22:59;;;;;;;0.10;0.10;;;;;;;22.57;54.76;101364.56;5161064;27;20050;-39
2022/08/01 10:25:27;;;;;;;0.10;0.10;;;;;;;22.57;54.79;101364.56;5129490;27;20042;-39
2022/08/01 10:28:15;;;;;;;0.10;0.10;;;;;;;22.58;54.96;101368.16;5148135;27;20057;-40
2022/08/01 10:30:44;;;;;;;0.10;0.10;;;;;;;22.58;54.93;101357.06;5145135;27;20091;-38
2022/08/01 10:33:11;;;;;;;0.10;0.10;;;;;;;22.57;54.93;101364.56;5164932;27;20053;-43
2022/08/01 10:35:58;;;;;;;0.10;0.10;;;;;;;22.58;55.09;101357.06;5146417;27;20050;-37
2022/08/01 10:38:27;;;;;;;0.10;0.10;;;;;;;22.57;55.06;101353.47;5166222;27;20046;-39
2022/08/01 10:40:54;;;;;;;0.10;0.10;;;;;;;22.58;54.89;101368.16;5142399;27;20078;-42
2022/08/01 10:43:20;;;;;;;0.10;0.10;;;;;;;22.57;54.80;101367.34;5166118;27;20528;-41
2022/08/01 10:45:47;;;;;;;0.10;0.10;;;;;;;22.58;54.94;101369.00;5162651;27;20050;-41
2022/08/01 10:48:53;;;;;;;0.10;0.10;;;;;;;22.57;54.78;101370.13;5166183;27;20038;-41
2022/08/01 10:51:21;;;;;;;0.10;0.10;;;;;;;22.57;54.95;101381.22;5133517;27;20057;-41
2022/08/01 10:53:49;;;;;;;0.10;0.10;;;;;;;22.58;54.91;101369.00;5162828;27;20123;-39
2022/08/01 10:56:21;;;;;;;0.10;0.10;;;;;;;22.58;54.99;101368.16;5144014;27;20050;-38
2022/08/01 10:59:01;;;;;;;0.10;0.10;;;;;;;22.58;54.93;101363.44;5129685;27;20042;-38
2022/08/01 11:01:32;;;;;;;0.10;0.10;;;;;;;22.56;58.42;101359.31;5160638;27;20073;-42
2022/08/01 11:04:03;;;;;;;0.10;0.10;;;;;;;22.60;56.58;101364.00;5161900;27;20054;-40
2022/08/01 11:12:00;;;;;;;0.10;0.10;;;;;;;22.45;59.90;101366.91;5165768;27;20209;-43
2022/08/01 11:14:26;;;;;;;0.10;0.10;;;;;;;22.32;60.36;101362.84;5125088;27;20066;-35
2022/08/01 11:17:33;;;;;;;0.20;0.20;;;;;;;22.23;60.80;101359.06;5150034;27;20119;-35
2022/08/01 11:28:23;;;;;;;0.10;0.10;;;;;;;22.24;60.49;101360.75;5173135;27;20132;-35
2022/08/01 11:36:26;;;;;;;0.10;0.10;;;;;;;22.17;60.59;101349.97;5156894;27;20125;-35
2022/08/01 11:39:13;;;;;;;0.10;0.10;;;;;;;22.17;60.23;101340.81;5109860;27;20047;-35
2022/08/01 11:41:40;;;;;;;0.10;0.10;;;;;;;22.17;60.27;101335.28;5138075;27;20047;-36
2022/08/01 11:44:25;;;;;;;0.10;0.10;;;;;;;22.20;59.97;101337.47;5109277;27;20070;-35
2022/08/01 11:47:09;;;;;;;0.10;0.10;;;;;;;22.27;59.77;101340.72;5128733;27;20066;-35
2022/08/01 11:52:23;;;;;;;0.10;0.10;;;;;;;22.28;59.55;101339.63;5166947;27;20133;-34
2022/08/01 11:54:53;;;;;;;0.20;0.20;;;;;;;22.25;59.69;101341.03;5144498;27;20453;-35
2022/08/01 11:57:35;;;;;;;0.10;0.10;;;;;;;22.32;59.50;101343.44;5143718;27;20066;-35
2022/08/01 12:00:06;;;;;;;0.10;0.10;;;;;;;22.27;59.41;101341.53;5144331;27;20396;-35
2022/08/01 12:02:34;;;;;;;0.10;0.10;;;;;;;22.25;59.24;101340.19;5162963;27;20038;-35
2022/08/01 12:05:11;;;;;;;0.10;0.10;;;;;;;22.22;59.36;101349.91;5162323;27;20052;-35
2022/08/01 12:07:39;;;;;;;0.10;0.10;;;;;;;22.23;59.29;101353.50;5164068;27;20046;-35